Time;durP1;ratioP1;P1;durP2;ratioP2;P2;SDS_P1;SDS_P2;PMS_P1;PMS_P2;Temp;Humidity;BMP_temperature;BMP_pressure;BME280_temperature;BME280_humidity;BME280_pressure;Samples;Min_cycle;Max_cycle;Signal;HPM_P1;HPM_P2
2024/01/12 00:00:43;;;;;;;31.80;17.27;;;4.00;99.90;;;;;;5041081;28;20041;-65
2024/01/12 00:03:09;;;;;;;41.35;17.50;;;4.00;99.90;;;;;;5041233;28;20041;-65
2024/01/12 00:05:35;;;;;;;37.20;18.02;;;4.10;99.90;;;;;;5041147;28;20079;-65
2024/01/12 00:08:01;;;;;;;36.67;18.42;;;4.10;99.90;;;;;;5040718;28;20047;-65
2024/01/12 00:10:27;;;;;;;34.28;18.05;;;4.10;99.90;;;;;;5057458;28;20033;-65
2024/01/12 00:12:53;;;;;;;33.97;17.52;;;4.10;99.90;;;;;;5057507;28;20397;-65
2024/01/12 00:15:18;;;;;;;35.05;18.08;;;4.10;99.90;;;;;;5040756;28;20262;-65
2024/01/12 00:17:44;;;;;;;32.28;17.42;;;4.00;99.90;;;;;;5058053;28;20033;-65
2024/01/12 00:20:10;;;;;;;34.20;17.60;;;4.10;99.90;;;;;;5057293;28;20381;-65
2024/01/12 00:22:36;;;;;;;34.75;18.67;;;4.10;99.90;;;;;;5057994;28;20033;-65
2024/01/12 00:25:02;;;;;;;35.40;18.02;;;4.10;99.90;;;;;;5040540;28;20188;-65
2024/01/12 00:27:28;;;;;;;32.75;18.10;;;4.10;99.90;;;;;;5040800;28;20048;-65
2024/01/12 00:29:54;;;;;;;35.70;17.88;;;4.10;99.90;;;;;;5040607;28;20304;-66
2024/01/12 00:32:20;;;;;;;34.42;17.95;;;4.10;99.90;;;;;;5040420;28;20328;-65
2024/01/12 00:34:46;;;;;;;32.08;17.08;;;4.00;99.90;;;;;;5057917;28;20304;-65
2024/01/12 00:37:11;;;;;;;35.33;17.83;;;4.00;99.90;;;;;;5057635;28;20033;-65
2024/01/12 00:39:37;;;;;;;32.80;17.60;;;4.00;99.90;;;;;;5057511;28;20381;-64
2024/01/12 00:42:04;;;;;;;37.42;18.02;;;4.10;99.90;;;;;;5056912;28;20132;-65
2024/01/12 00:44:30;;;;;;;34.85;17.55;;;4.10;99.90;;;;;;5057601;28;20037;-64
2024/01/12 00:46:56;;;;;;;32.28;16.85;;;4.10;99.90;;;;;;5056996;28;20059;-64
2024/01/12 00:49:22;;;;;;;34.13;17.70;;;4.10;99.90;;;;;;5057468;28;20450;-65
2024/01/12 00:51:48;;;;;;;32.67;17.05;;;4.20;99.90;;;;;;5057355;28;20396;-65
2024/01/12 00:54:14;;;;;;;31.60;16.70;;;4.20;99.90;;;;;;5056666;28;20075;-64
2024/01/12 00:56:41;;;;;;;30.67;16.42;;;4.20;99.90;;;;;;5057318;28;20033;-64
2024/01/12 00:59:07;;;;;;;31.80;16.52;;;4.20;99.90;;;;;;5056567;28;20033;-64
2024/01/12 01:01:34;;;;;;;34.20;16.65;;;4.20;99.90;;;;;;5056602;28;20392;-64
2024/01/12 01:04:00;;;;;;;33.42;16.35;;;4.20;99.90;;;;;;5039915;28;20029;-64
2024/01/12 01:06:26;;;;;;;29.65;15.43;;;4.30;99.90;;;;;;5056596;28;20028;-64
2024/01/12 01:08:52;;;;;;;32.67;15.77;;;4.30;99.90;;;;;;5056390;28;20140;-64
2024/01/12 01:11:18;;;;;;;31.75;14.25;;;4.30;99.90;;;;;;5056357;28;20124;-65
2024/01/12 01:13:44;;;;;;;30.02;14.20;;;4.30;99.90;;;;;;5056346;28;20033;-65
2024/01/12 01:16:10;;;;;;;31.80;14.70;;;4.40;99.90;;;;;;5057088;28;20309;-65
2024/01/12 01:18:36;;;;;;;28.67;13.45;;;4.40;99.90;;;;;;5056341;28;20021;-65
2024/01/12 01:21:02;;;;;;;31.85;14.00;;;4.40;99.90;;;;;;5056432;28;20312;-65
2024/01/12 01:23:28;;;;;;;29.27;13.73;;;4.40;99.90;;;;;;5056207;28;20043;-65
2024/01/12 01:25:54;;;;;;;35.25;14.20;;;4.40;99.90;;;;;;5039653;28;20033;-66
2024/01/12 01:28:20;;;;;;;33.85;14.10;;;4.50;99.90;;;;;;5039535;28;20113;-65
2024/01/12 01:30:46;;;;;;;30.77;14.43;;;4.40;99.90;;;;;;5039531;28;20301;-64
2024/01/12 01:33:12;;;;;;;30.05;14.60;;;4.40;99.90;;;;;;5056108;28;20017;-65
2024/01/12 01:35:37;;;;;;;24.05;13.63;;;4.50;99.90;;;;;;5055977;28;20041;-64
2024/01/12 01:38:03;;;;;;;29.58;13.90;;;4.50;99.90;;;;;;5056761;28;20052;-65
2024/01/12 01:40:29;;;;;;;27.90;13.85;;;4.50;99.90;;;;;;5055947;28;20337;-64
2024/01/12 01:42:55;;;;;;;25.42;12.60;;;4.50;99.90;;;;;;5056106;28;20080;-65
2024/01/12 01:45:21;;;;;;;24.77;12.85;;;4.50;99.90;;;;;;5056025;28;20025;-64
2024/01/12 01:47:47;;;;;;;32.38;13.88;;;4.50;99.90;;;;;;5056063;28;20025;-64
2024/01/12 01:50:15;;;;;;;24.85;12.40;;;4.50;99.90;;;;;;5056647;28;20069;-65
2024/01/12 01:52:43;;;;;;;38.13;14.90;;;4.50;99.90;;;;;;5055870;28;20389;-64
2024/01/12 01:55:11;;;;;;;25.75;12.80;;;4.60;99.90;;;;;;5039300;28;20036;-65
2024/01/12 01:57:39;;;;;;;27.30;13.13;;;4.60;99.90;;;;;;5056563;28;20024;-64
2024/01/12 02:00:05;;;;;;;30.25;13.93;;;4.60;99.90;;;;;;5055927;28;20416;-64
2024/01/12 02:02:39;;;;;;;30.70;13.65;;;4.60;99.90;;;;;;5056604;28;20041;-64
2024/01/12 02:05:09;;;;;;;28.15;12.98;;;4.50;99.90;;;;;;5055768;28;20025;-64
2024/01/12 02:07:37;;;;;;;28.88;13.13;;;4.50;99.90;;;;;;5056780;28;20018;-64
2024/01/12 02:10:04;;;;;;;28.52;13.52;;;4.50;99.90;;;;;;5055694;28;20033;-64
2024/01/12 02:12:29;;;;;;;31.58;13.23;;;4.60;99.90;;;;;;5055600;28;20033;-64
2024/01/12 02:14:56;;;;;;;31.80;14.20;;;4.60;99.90;;;;;;5056477;28;20032;-64
2024/01/12 02:17:22;;;;;;;30.70;13.20;;;4.60;99.90;;;;;;5038898;28;20032;-64
2024/01/12 02:19:48;;;;;;;25.65;13.43;;;4.60;99.90;;;;;;5055730;28;20315;-64
2024/01/12 02:22:14;;;;;;;27.15;13.23;;;4.60;99.90;;;;;;5038980;28;20029;-63
2024/01/12 02:24:39;;;;;;;29.73;13.05;;;4.60;99.90;;;;;;5055635;28;20068;-64
2024/01/12 02:27:05;;;;;;;28.77;13.32;;;4.60;99.90;;;;;;5022538;28;20032;-64
2024/01/12 02:29:31;;;;;;;28.33;13.60;;;4.60;99.90;;;;;;5055499;28;20135;-64
2024/01/12 02:31:57;;;;;;;26.52;13.55;;;4.60;99.90;;;;;;5057044;28;20025;-64
2024/01/12 02:34:23;;;;;;;31.13;14.15;;;4.60;99.90;;;;;;5059265;28;20040;-64
2024/01/12 02:36:49;;;;;;;31.45;13.68;;;4.60;99.90;;;;;;5042689;28;20140;-64
2024/01/12 02:39:15;;;;;;;28.52;13.18;;;4.60;99.90;;;;;;5059929;28;20325;-64
2024/01/12 02:41:40;;;;;;;27.65;13.35;;;4.60;99.90;;;;;;5026077;28;20060;-66
2024/01/12 02:44:06;;;;;;;28.73;14.25;;;4.60;99.90;;;;;;5059378;28;20040;-64
2024/01/12 02:46:32;;;;;;;27.20;13.52;;;4.60;99.90;;;;;;5059193;28;20029;-64
2024/01/12 02:48:58;;;;;;;29.63;13.73;;;4.60;99.90;;;;;;5059193;28;20163;-63
2024/01/12 02:51:23;;;;;;;29.13;13.43;;;4.60;99.90;;;;;;5058993;28;20033;-63
2024/01/12 02:53:49;;;;;;;28.42;14.48;;;4.60;99.90;;;;;;5059768;28;20060;-63
2024/01/12 02:56:15;;;;;;;30.17;13.30;;;4.60;99.90;;;;;;5059742;28;20029;-64
2024/01/12 02:58:41;;;;;;;28.77;14.13;;;4.60;99.90;;;;;;5059736;28;20511;-64
2024/01/12 03:01:06;;;;;;;26.60;13.40;;;4.60;99.90;;;;;;5058819;28;20087;-64
2024/01/12 03:03:32;;;;;;;28.20;13.57;;;4.60;99.90;;;;;;5059433;28;20029;-65
2024/01/12 03:05:58;;;;;;;26.30;13.32;;;4.60;99.90;;;;;;5042324;28;20037;-65
2024/01/12 03:08:24;;;;;;;27.17;12.45;;;4.60;99.90;;;;;;5059422;28;20039;-65
2024/01/12 03:10:49;;;;;;;29.80;13.93;;;4.60;99.90;;;;;;5042053;28;20029;-65
2024/01/12 03:13:15;;;;;;;32.83;14.15;;;4.60;99.90;;;;;;5059412;28;20033;-66
2024/01/12 03:15:41;;;;;;;30.13;13.57;;;4.60;99.90;;;;;;5058711;28;20439;-65
2024/01/12 03:18:07;;;;;;;27.48;13.27;;;4.70;99.90;;;;;;5058490;28;20029;-64
2024/01/12 03:20:33;;;;;;;25.02;13.13;;;4.60;99.90;;;;;;5058598;28;20056;-64
2024/01/12 03:22:59;;;;;;;33.80;14.13;;;4.60;99.90;;;;;;5058486;28;20029;-64
2024/01/12 03:25:25;;;;;;;27.55;13.93;;;4.60;99.90;;;;;;5025610;28;20039;-64
2024/01/12 03:27:51;;;;;;;27.58;12.43;;;4.60;99.90;;;;;;5058435;28;20025;-64
2024/01/12 03:30:16;;;;;;;23.67;13.25;;;4.60;99.90;;;;;;5058250;28;20025;-65
2024/01/12 03:32:43;;;;;;;29.42;12.80;;;4.60;99.90;;;;;;5058176;28;20127;-64
2024/01/12 03:35:09;;;;;;;30.25;13.93;;;4.60;99.90;;;;;;5058979;28;20029;-65
2024/01/12 03:37:35;;;;;;;34.28;13.38;;;4.60;99.90;;;;;;5059095;28;20017;-65
2024/01/12 03:40:01;;;;;;;26.92;12.57;;;4.60;99.90;;;;;;5058711;28;20064;-65
2024/01/12 03:42:27;;;;;;;33.30;13.95;;;4.60;99.90;;;;;;5057536;28;20029;-65
2024/01/12 03:44:54;;;;;;;30.10;13.35;;;4.60;99.90;;;;;;5058079;28;20110;-66
2024/01/12 03:47:20;;;;;;;26.50;12.77;;;4.60;99.90;;;;;;5057986;28;20393;-65
2024/01/12 03:49:46;;;;;;;26.67;12.88;;;4.60;99.90;;;;;;5058303;28;20120;-65
2024/01/12 03:52:11;;;;;;;25.02;13.02;;;4.60;99.90;;;;;;5058149;28;20445;-63
2024/01/12 03:54:37;;;;;;;26.20;13.00;;;4.60;99.90;;;;;;5057876;28;20093;-63
2024/01/12 03:57:03;;;;;;;32.10;13.50;;;4.60;99.90;;;;;;5041273;28;20024;-65
2024/01/12 03:59:29;;;;;;;26.58;12.63;;;4.60;99.90;;;;;;5058463;28;20385;-65
2024/01/12 04:01:55;;;;;;;26.27;12.45;;;4.60;99.90;;;;;;5041364;28;20102;-65
2024/01/12 04:04:21;;;;;;;22.38;11.75;;;4.60;99.90;;;;;;5041042;28;20060;-65
2024/01/12 04:06:47;;;;;;;26.15;12.07;;;4.60;99.90;;;;;;5058399;28;20313;-66
2024/01/12 04:09:13;;;;;;;22.05;12.48;;;4.60;99.90;;;;;;5041091;28;20037;-64
2024/01/12 04:11:39;;;;;;;23.23;11.50;;;4.60;99.90;;;;;;5057451;28;20028;-64
2024/01/12 04:14:05;;;;;;;35.47;13.60;;;4.60;99.90;;;;;;5058272;28;20040;-64
2024/01/12 04:16:31;;;;;;;20.77;11.00;;;4.60;99.90;;;;;;5058183;28;20029;-65
2024/01/12 04:18:57;;;;;;;23.65;11.30;;;4.60;99.90;;;;;;5057512;28;20021;-64
2024/01/12 04:21:23;;;;;;;22.25;11.57;;;4.60;99.50;;;;;;5058113;28;20025;-65
2024/01/12 04:23:48;;;;;;;25.20;10.68;;;4.60;99.40;;;;;;5057370;28;20088;-65
2024/01/12 04:26:14;;;;;;;22.98;10.60;;;4.60;99.90;;;;;;5058112;28;20033;-65
2024/01/12 04:28:40;;;;;;;22.42;10.90;;;4.60;98.40;;;;;;5057943;28;20087;-65
2024/01/12 04:31:06;;;;;;;25.08;10.85;;;4.60;95.40;;;;;;5040454;28;20032;-65
2024/01/12 04:33:33;;;;;;;23.30;10.35;;;4.60;93.00;;;;;;5057837;28;20025;-64
2024/01/12 04:36:00;;;;;;;23.63;9.88;;;4.60;89.80;;;;;;5058035;28;20053;-64
2024/01/12 04:38:26;;;;;;;21.10;8.55;;;4.60;84.00;;;;;;5057697;28;20278;-65
2024/01/12 04:40:53;;;;;;;24.90;9.27;;;4.60;83.40;;;;;;5057603;28;20126;-66
2024/01/12 04:43:20;;;;;;;19.33;8.82;;;4.60;79.30;;;;;;5040245;28;20079;-65
2024/01/12 04:45:46;;;;;;;19.42;9.05;;;4.50;66.80;;;;;;5057001;28;20036;-64
2024/01/12 04:48:11;;;;;;;20.17;9.02;;;4.50;77.30;;;;;;5056696;28;20029;-65
2024/01/12 04:50:37;;;;;;;19.38;8.45;;;4.50;77.50;;;;;;5056720;28;20048;-65
2024/01/12 04:53:03;;;;;;;18.75;8.27;;;4.60;78.30;;;;;;5056921;28;20094;-65
2024/01/12 04:55:29;;;;;;;17.90;8.82;;;4.60;68.20;;;;;;5039367;28;20021;-64
2024/01/12 04:57:55;;;;;;;17.83;8.13;;;4.70;63.40;;;;;;5040130;28;20035;-64
2024/01/12 05:00:21;;;;;;;15.45;7.80;;;4.60;57.70;;;;;;5057461;28;20053;-64
2024/01/12 05:02:46;;;;;;;20.13;8.55;;;4.60;56.00;;;;;;5056629;28;20029;-64
2024/01/12 05:05:12;;;;;;;20.40;8.02;;;4.60;55.50;;;;;;5056377;28;20037;-64
2024/01/12 05:07:38;;;;;;;15.65;6.95;;;4.60;38.70;;;;;;5057200;28;20037;-64
2024/01/12 05:10:05;;;;;;;14.25;7.35;;;4.70;31.00;;;;;;5023459;28;20090;-64
2024/01/12 05:12:31;;;;;;;19.30;7.90;;;4.70;34.10;;;;;;5056303;28;20088;-64
2024/01/12 05:14:58;;;;;;;21.80;8.20;;;4.60;29.20;;;;;;5057113;28;20021;-64
2024/01/12 05:17:25;;;;;;;20.92;7.72;;;4.60;5.50;;;;;;5056322;28;20025;-64
2024/01/12 05:19:51;;;;;;;21.45;7.90;;;4.60;7.70;;;;;;5057172;28;20033;-64
2024/01/12 05:22:17;;;;;;;21.35;7.55;;;4.60;3.30;;;;;;5039592;28;20132;-64
2024/01/12 05:24:42;;;;;;;16.95;6.25;;;4.80;1.00;;;;;;5039580;28;20397;-64
2024/01/12 05:27:08;;;;;;;20.85;7.75;;;4.70;1.00;;;;;;5056256;28;20412;-64
2024/01/12 05:29:34;;;;;;;15.88;7.38;;;4.60;1.00;;;;;;5056120;28;20095;-65
2024/01/12 05:32:01;;;;;;;17.67;8.10;;;4.60;1.00;;;;;;5055985;28;20463;-65
2024/01/12 05:34:27;;;;;;;20.52;7.82;;;4.60;1.00;;;;;;5056114;28;20044;-65
2024/01/12 05:36:52;;;;;;;18.67;7.35;;;4.60;1.00;;;;;;5056058;28;20021;-63
2024/01/12 05:39:18;;;;;;;14.63;7.00;;;4.60;1.00;;;;;;5056669;28;20029;-63
2024/01/12 05:41:44;;;;;;;18.95;7.47;;;4.60;1.00;;;;;;5055845;28;20056;-63
2024/01/12 05:44:10;;;;;;;16.95;7.45;;;4.50;1.00;;;;;;5056751;28;20306;-63
2024/01/12 05:46:35;;;;;;;20.55;7.32;;;4.60;1.00;;;;;;5056634;28;20039;-64
2024/01/12 05:49:04;;;;;;;16.08;6.97;;;4.50;1.00;;;;;;5039427;28;20029;-64
2024/01/12 05:51:33;;;;;;;21.67;7.40;;;4.50;1.00;;;;;;5055880;28;20033;-64
2024/01/12 05:53:58;;;;;;;21.58;7.03;;;4.60;1.00;;;;;;5055789;28;20033;-64
2024/01/12 05:56:24;;;;;;;16.08;7.53;;;4.60;1.00;;;;;;5039305;28;20044;-64
2024/01/12 05:58:50;;;;;;;19.75;7.60;;;4.50;1.00;;;;;;5055961;28;20036;-64
2024/01/12 06:01:17;;;;;;;21.67;7.55;;;4.40;1.00;;;;;;5039315;28;20037;-64
2024/01/12 06:03:46;;;;;;;20.60;7.13;;;4.40;1.00;;;;;;5055683;28;20072;-64
2024/01/12 06:06:12;;;;;;;17.20;7.50;;;4.50;1.00;;;;;;5057749;28;20032;-64
2024/01/12 06:08:37;;;;;;;17.13;7.45;;;4.50;1.00;;;;;;5059778;28;20033;-64
2024/01/12 06:11:04;;;;;;;16.77;6.80;;;4.50;1.00;;;;;;5060400;28;20068;-64
2024/01/12 06:13:30;;;;;;;16.35;7.25;;;4.50;1.00;;;;;;5060429;28;20120;-64
2024/01/12 06:15:55;;;;;;;18.65;7.28;;;4.60;1.00;;;;;;5060446;28;20125;-64
2024/01/12 06:18:21;;;;;;;13.45;7.03;;;4.60;1.00;;;;;;5059617;28;20101;-64
2024/01/12 06:20:48;;;;;;;18.23;6.50;;;4.60;1.00;;;;;;5060349;28;20033;-64
2024/01/12 06:23:14;;;;;;;18.38;7.30;;;4.50;1.00;;;;;;5059411;28;20029;-63
2024/01/12 06:25:40;;;;;;;12.73;6.88;;;4.60;1.00;;;;;;5060146;28;20103;-63
2024/01/12 06:28:06;;;;;;;13.43;7.15;;;4.60;1.00;;;;;;5059480;28;20116;-63
2024/01/12 06:30:32;;;;;;;16.60;6.88;;;4.60;1.00;;;;;;5060002;28;20024;-63
2024/01/12 06:32:59;;;;;;;17.83;6.63;;;4.60;1.00;;;;;;5059565;28;20037;-63
2024/01/12 06:35:27;;;;;;;15.15;5.97;;;4.60;1.00;;;;;;5060138;28;20029;-63
2024/01/12 06:37:53;;;;;;;20.30;5.65;;;4.60;1.00;;;;;;5059939;28;20466;-63
2024/01/12 06:40:19;;;;;;;16.33;5.72;;;4.50;1.00;;;;;;5042524;28;20120;-63
2024/01/12 06:42:45;;;;;;;15.65;5.03;;;4.50;1.00;;;;;;5059807;28;20105;-64
2024/01/12 06:45:11;;;;;;;11.98;4.68;;;4.20;1.00;;;;;;5059868;28;20106;-63
2024/01/12 06:47:37;;;;;;;11.60;4.85;;;4.20;1.00;;;;;;5042417;28;20040;-63
2024/01/12 06:50:03;;;;;;;14.48;5.13;;;4.30;1.00;;;;;;5059704;28;20032;-63
2024/01/12 06:52:33;;;;;;;16.58;4.47;;;4.30;1.00;;;;;;5058912;28;20347;-65
2024/01/12 06:54:59;;;;;;;14.68;4.60;;;4.20;1.00;;;;;;5059688;28;20044;-64
2024/01/12 06:57:24;;;;;;;11.45;4.25;;;4.20;1.00;;;;;;5042348;28;20033;-64
2024/01/12 06:59:50;;;;;;;13.75;4.85;;;4.30;1.00;;;;;;5042258;28;20041;-64
2024/01/12 07:02:16;;;;;;;12.32;4.85;;;4.30;1.00;;;;;;5058936;28;20033;-64
2024/01/12 07:04:42;;;;;;;15.65;4.90;;;4.30;1.00;;;;;;5058775;28;20090;-64
2024/01/12 07:07:09;;;;;;;14.70;4.70;;;4.30;1.00;;;;;;5058782;28;20063;-64
2024/01/12 07:09:35;;;;;;;13.77;5.20;;;4.40;1.00;;;;;;5059323;28;20032;-64
2024/01/12 07:12:02;;;;;;;12.07;4.80;;;4.30;1.00;;;;;;5041872;28;20041;-64
2024/01/12 07:14:28;;;;;;;13.32;4.97;;;4.30;1.00;;;;;;5058689;28;20032;-64
2024/01/12 07:16:53;;;;;;;10.98;4.43;;;4.40;1.00;;;;;;5058406;28;20028;-65
2024/01/12 07:19:19;;;;;;;13.35;5.40;;;4.40;1.00;;;;;;5057710;28;20049;-64
2024/01/12 07:21:45;;;;;;;15.63;5.22;;;4.50;1.00;;;;;;5058569;28;20029;-65
2024/01/12 07:24:11;;;;;;;11.50;4.72;;;4.50;1.00;;;;;;5058381;28;20051;-65
2024/01/12 07:26:37;;;;;;;12.40;5.07;;;4.50;1.00;;;;;;5040740;28;20033;-65
2024/01/12 07:29:03;;;;;;;17.17;4.88;;;4.50;1.00;;;;;;5074365;28;20033;-62
2024/01/12 07:31:30;;;;;;;11.15;4.68;;;4.50;1.00;;;;;;5058906;28;20297;-66
2024/01/12 07:33:55;;;;;;;11.68;4.72;;;5.60;1.00;;;;;;5068583;28;20036;-66
2024/01/12 07:36:21;;;;;;;15.32;5.78;;;5.20;1.00;;;;;;5079038;28;20032;-66
2024/01/12 07:38:47;;;;;;;17.25;5.60;;;5.10;1.00;;;;;;5078797;28;20037;-66
2024/01/12 07:41:13;;;;;;;10.05;4.68;;;4.90;1.00;;;;;;5078648;28;20399;-65
2024/01/12 07:43:39;;;;;;;13.90;4.57;;;5.00;1.00;;;;;;5058506;28;20090;-64
2024/01/12 07:46:05;;;;;;;18.70;5.03;;;5.10;1.00;;;;;;5058690;28;20024;-64
2024/01/12 07:48:31;;;;;;;15.25;5.32;;;6.40;1.00;;;;;;5057801;28;20110;-64
2024/01/12 07:50:56;;;;;;;15.70;4.97;;;5.90;93.50;;;;;;5057513;28;20033;-64
2024/01/12 07:53:22;;;;;;;6.60;4.25;;;5.60;1.00;;;;;;5058307;28;20029;-64
2024/01/12 07:55:49;;;;;;;10.32;4.88;;;5.40;1.00;;;;;;5058115;28;20045;-64
2024/01/12 07:58:18;;;;;;;12.90;5.03;;;5.20;1.00;;;;;;5058500;28;20036;-64
2024/01/12 08:00:44;;;;;;;12.02;5.30;;;5.10;1.00;;;;;;5058500;28;20037;-64
2024/01/12 08:03:10;;;;;;;16.10;5.32;;;5.00;1.00;;;;;;5058519;28;20078;-63
2024/01/12 08:05:35;;;;;;;11.88;5.75;;;5.10;1.00;;;;;;5056815;28;20055;-67
2024/01/12 08:08:02;;;;;;;18.52;6.20;;;5.00;1.00;;;;;;5067277;28;20043;-64
2024/01/12 08:10:27;;;;;;;14.18;6.68;;;4.90;1.00;;;;;;5032535;28;20048;-63
2024/01/12 08:12:53;;;;;;;16.20;6.47;;;4.90;1.00;;;;;;5051977;28;20068;-64
2024/01/12 08:15:19;;;;;;;11.30;6.43;;;4.90;1.00;;;;;;5063575;28;20055;-64
2024/01/12 08:17:45;;;;;;;13.02;4.95;;;4.90;1.00;;;;;;5077061;28;20025;-63
2024/01/12 08:20:11;;;;;;;16.80;6.05;;;4.90;1.00;;;;;;5077932;28;20029;-64
2024/01/12 08:22:37;;;;;;;12.93;6.18;;;4.90;1.00;;;;;;5077362;28;20317;-63
2024/01/12 08:25:03;;;;;;;13.18;5.05;;;4.90;1.00;;;;;;5077921;28;20071;-64
2024/01/12 08:27:29;;;;;;;16.38;6.20;;;4.90;1.00;;;;;;5077194;28;20044;-64
2024/01/12 08:29:55;;;;;;;18.33;6.13;;;4.90;1.00;;;;;;5077713;28;20040;-64
2024/01/12 08:32:21;;;;;;;12.15;6.10;;;4.90;1.00;;;;;;5076991;28;20080;-63
2024/01/12 08:34:47;;;;;;;10.95;4.68;;;5.00;1.00;;;;;;5077642;28;20063;-63
2024/01/12 08:37:13;;;;;;;13.52;5.30;;;5.00;1.00;;;;;;5077661;28;20448;-63
2024/01/12 08:39:39;;;;;;;8.85;5.38;;;5.00;1.00;;;;;;5077540;28;20886;-63
2024/01/12 08:42:06;;;;;;;13.88;5.57;;;5.10;1.00;;;;;;5077568;28;20035;-63
2024/01/12 08:44:32;;;;;;;16.63;6.10;;;5.10;1.00;;;;;;5060417;28;20118;-64
2024/01/12 08:46:58;;;;;;;18.17;6.25;;;5.10;1.00;;;;;;5043742;28;20090;-63
2024/01/12 08:49:24;;;;;;;11.68;5.60;;;5.10;1.00;;;;;;5043600;28;20036;-63
2024/01/12 08:51:51;;;;;;;14.00;6.00;;;5.20;1.00;;;;;;5059913;28;20032;-63
2024/01/12 08:54:17;;;;;;;19.55;6.05;;;5.20;1.00;;;;;;5077199;28;20036;-63
2024/01/12 08:56:43;;;;;;;15.80;6.05;;;5.20;1.00;;;;;;5077335;28;20281;-64
2024/01/12 08:59:09;;;;;;;17.35;6.10;;;5.20;1.00;;;;;;5077141;28;20055;-63
2024/01/12 09:01:35;;;;;;;9.25;5.20;;;5.30;1.00;;;;;;5060152;28;20388;-63
2024/01/12 09:04:01;;;;;;;15.68;5.60;;;5.30;1.00;;;;;;5077220;28;20036;-63
2024/01/12 09:06:30;;;;;;;14.40;6.00;;;5.30;1.00;;;;;;5027223;28;20028;-63
2024/01/12 09:08:56;;;;;;;13.25;5.85;;;5.40;1.00;;;;;;5076369;28;20059;-64
2024/01/12 09:11:22;;;;;;;18.63;6.18;;;5.40;1.00;;;;;;5076309;28;20068;-63
2024/01/12 09:13:49;;;;;;;21.83;7.22;;;5.40;1.00;;;;;;5077103;28;20037;-64
2024/01/12 09:16:15;;;;;;;17.05;6.85;;;5.40;1.00;;;;;;5077028;28;20052;-63
2024/01/12 09:18:44;;;;;;;17.35;6.45;;;5.40;1.00;;;;;;5076226;28;20042;-63
2024/01/12 09:21:15;;;;;;;19.33;6.90;;;5.50;1.00;;;;;;5076422;28;20085;-63
2024/01/12 09:23:45;;;;;;;15.82;6.75;;;5.40;1.00;;;;;;5059602;28;20036;-63
2024/01/12 09:26:11;;;;;;;19.33;6.45;;;5.40;1.00;;;;;;5076861;28;20035;-63
2024/01/12 09:28:38;;;;;;;20.15;6.25;;;5.40;1.00;;;;;;5076136;28;20032;-63
2024/01/12 09:31:05;;;;;;;21.95;6.25;;;5.50;1.00;;;;;;5075909;28;20043;-63
2024/01/12 09:33:31;;;;;;;16.42;6.38;;;5.50;1.00;;;;;;5076885;28;20021;-62
2024/01/12 09:35:57;;;;;;;16.08;6.45;;;5.40;1.00;;;;;;5076839;28;20088;-63
2024/01/12 09:38:22;;;;;;;15.15;6.72;;;5.50;1.00;;;;;;5059377;28;20070;-62
2024/01/12 09:40:48;;;;;;;19.08;7.13;;;5.50;1.00;;;;;;5075504;28;20158;-64
2024/01/12 09:43:15;;;;;;;19.15;7.75;;;5.60;1.00;;;;;;5076120;28;20040;-63
2024/01/12 09:45:45;;;;;;;21.17;8.02;;;5.60;1.00;;;;;;5075932;28;20424;-63
2024/01/12 09:48:12;;;;;;;27.15;8.80;;;5.60;1.00;;;;;;5059387;28;20082;-63
2024/01/12 09:50:42;;;;;;;25.00;9.13;;;5.60;1.00;;;;;;5076712;28;20029;-63
2024/01/12 09:53:08;;;;;;;16.50;7.90;;;5.60;1.00;;;;;;5076813;28;20299;-63
2024/01/12 09:55:34;;;;;;;22.33;8.10;;;5.70;1.00;;;;;;5075868;28;20099;-63
2024/01/12 09:58:01;;;;;;;17.67;7.78;;;5.70;1.00;;;;;;5075671;28;20063;-63
2024/01/12 10:00:31;;;;;;;23.98;8.50;;;5.70;1.00;;;;;;5075712;28;20032;-62
2024/01/12 10:02:58;;;;;;;19.50;8.38;;;5.80;1.00;;;;;;5075901;28;20404;-63
2024/01/12 10:05:25;;;;;;;25.67;7.93;;;5.80;1.00;;;;;;5042730;28;20041;-63
2024/01/12 10:07:50;;;;;;;23.33;8.30;;;5.50;1.00;;;;;;5075819;28;20123;-63
2024/01/12 10:10:16;;;;;;;24.23;8.80;;;5.10;1.00;;;;;;5076487;28;20168;-63
2024/01/12 10:12:47;;;;;;;21.63;8.77;;;5.30;1.00;;;;;;5058943;28;20032;-63
2024/01/12 10:15:13;;;;;;;22.63;8.70;;;5.40;1.00;;;;;;5076412;28;20028;-63
2024/01/12 10:17:38;;;;;;;19.40;8.90;;;5.20;1.00;;;;;;5059080;28;20033;-63
2024/01/12 10:20:06;;;;;;;22.25;8.85;;;5.40;1.00;;;;;;5075659;28;20104;-63
2024/01/12 10:22:32;;;;;;;21.35;9.88;;;5.70;1.00;;;;;;5075463;28;20073;-63
2024/01/12 10:24:59;;;;;;;23.50;9.48;;;5.90;1.00;;;;;;5075460;28;20040;-62
2024/01/12 10:27:26;;;;;;;18.27;9.02;;;5.90;1.00;;;;;;5076184;28;20024;-62
2024/01/12 10:29:52;;;;;;;24.08;8.73;;;6.00;1.00;;;;;;5076269;28;20040;-64
2024/01/12 10:32:19;;;;;;;20.17;8.48;;;5.80;1.00;;;;;;5058801;28;20035;-63
2024/01/12 10:34:47;;;;;;;23.92;8.73;;;5.90;1.00;;;;;;5076248;28;20420;-63
2024/01/12 10:37:15;;;;;;;20.05;8.18;;;6.10;1.00;;;;;;5076129;28;20265;-63
2024/01/12 10:39:44;;;;;;;24.48;9.27;;;6.30;1.00;;;;;;5076007;28;20098;-63
2024/01/12 10:42:11;;;;;;;20.10;9.07;;;6.60;99.90;;;;;;5076116;28;20044;-63
2024/01/12 10:44:40;;;;;;;21.02;8.90;;;6.60;1.00;;;;;;5076175;28;20037;-62
2024/01/12 10:47:10;;;;;;;25.23;9.00;;;6.70;1.00;;;;;;5075470;28;20041;-62
2024/01/12 10:49:50;;;;;;;24.48;8.80;;;6.70;1.00;;;;;;5075505;28;20044;-63
2024/01/12 10:52:22;;;;;;;24.80;8.82;;;6.70;1.00;;;;;;5076024;28;20064;-62
2024/01/12 10:54:57;;;;;;;22.98;9.00;;;6.10;99.90;;;;;;5078986;28;20031;-62
2024/01/12 10:57:25;;;;;;;21.52;8.88;;;6.10;99.90;;;;;;5078804;28;20024;-62
2024/01/12 10:59:51;;;;;;;22.35;8.60;;;6.00;1.00;;;;;;5062240;28;20033;-63
2024/01/12 11:02:19;;;;;;;24.98;8.50;;;5.70;1.00;;;;;;5079511;28;20029;-62
2024/01/12 11:04:46;;;;;;;16.55;8.48;;;5.30;1.00;;;;;;5079529;28;20434;-63
2024/01/12 11:07:14;;;;;;;21.75;8.60;;;5.30;1.00;;;;;;5079346;28;20056;-63
2024/01/12 11:09:40;;;;;;;18.17;8.52;;;5.60;1.00;;;;;;5077100;28;20044;-63
2024/01/12 11:12:12;;;;;;;21.48;8.23;;;6.00;1.00;;;;;;5050078;28;20025;-65
2024/01/12 11:14:40;;;;;;;20.45;9.40;;;6.20;1.00;;;;;;5045810;28;20017;-64
2024/01/12 11:17:06;;;;;;;20.25;9.15;;;6.40;1.00;;;;;;5059375;28;20122;-63
2024/01/12 11:19:33;;;;;;;19.50;9.50;;;6.50;99.90;;;;;;5047356;28;20037;-63
2024/01/12 11:22:18;;;;;;;19.45;8.80;;;6.60;99.90;;;;;;5022173;28;20080;-64
2024/01/12 11:24:44;;;;;;;20.42;8.02;;;6.70;1.00;;;;;;5046227;23;20068;-63
2024/01/12 11:27:14;;;;;;;21.13;8.20;;;6.70;1.00;;;;;;5056241;28;20060;-63
2024/01/12 11:29:43;;;;;;;18.23;8.52;;;6.70;1.00;;;;;;5059071;28;20114;-63
2024/01/12 11:32:14;;;;;;;17.00;8.27;;;6.80;1.00;;;;;;5058887;28;20044;-63
2024/01/12 11:34:40;;;;;;;19.73;8.38;;;6.60;1.00;;;;;;5059132;28;20041;-62
2024/01/12 11:37:10;;;;;;;21.70;8.85;;;6.50;1.00;;;;;;5059071;28;20090;-62
2024/01/12 11:39:41;;;;;;;23.02;9.23;;;6.20;23.70;;;;;;5058923;28;20084;-63
2024/01/12 11:42:07;;;;;;;18.80;8.60;;;6.20;99.90;;;;;;5058898;28;20047;-62
2024/01/12 11:44:35;;;;;;;17.75;8.95;;;6.10;99.90;;;;;;5058614;28;20029;-62
2024/01/12 11:47:05;;;;;;;21.40;8.52;;;6.10;1.00;;;;;;5039382;28;20108;-62
2024/01/12 11:49:30;;;;;;;21.27;8.63;;;6.10;1.00;;;;;;5056189;28;20055;-62
2024/01/12 11:52:07;;;;;;;21.92;8.45;;;5.90;1.00;;;;;;5056181;28;20032;-63
2024/01/12 11:54:33;;;;;;;17.92;9.10;;;5.90;1.00;;;;;;5056997;28;20037;-63
2024/01/12 11:57:01;;;;;;;21.75;8.82;;;6.00;1.00;;;;;;5056765;28;20032;-63
2024/01/12 11:59:27;;;;;;;18.67;8.73;;;6.00;1.00;;;;;;5039976;28;20037;-63
2024/01/12 12:01:53;;;;;;;19.17;8.20;;;6.00;1.00;;;;;;5039442;28;20289;-62
2024/01/12 12:04:19;;;;;;;23.35;9.05;;;6.20;1.00;;;;;;5056332;28;20028;-63
2024/01/12 12:06:48;;;;;;;20.50;8.55;;;6.20;1.00;;;;;;5040786;28;20033;-63
2024/01/12 12:09:14;;;;;;;22.17;9.63;;;6.20;1.00;;;;;;5058318;28;20035;-63
2024/01/12 12:11:40;;;;;;;19.50;8.73;;;5.90;1.00;;;;;;5040888;28;20044;-63
2024/01/12 12:14:06;;;;;;;20.13;8.88;;;5.90;1.00;;;;;;5057584;28;20033;-63
2024/01/12 12:16:33;;;;;;;24.23;9.75;;;6.10;1.00;;;;;;5057309;28;20059;-63
2024/01/12 12:18:59;;;;;;;17.70;8.77;;;6.20;1.00;;;;;;5058208;28;20025;-63
2024/01/12 12:21:25;;;;;;;18.92;8.35;;;6.20;1.00;;;;;;5040690;28;20081;-64
2024/01/12 12:23:51;;;;;;;22.10;9.23;;;6.20;1.00;;;;;;5055906;28;20028;-63
2024/01/12 12:26:17;;;;;;;21.23;9.63;;;6.20;1.00;;;;;;5034596;28;20055;-63
2024/01/12 12:28:47;;;;;;;20.52;8.82;;;6.20;1.00;;;;;;5043465;28;20440;-63
2024/01/12 12:31:13;;;;;;;19.55;8.48;;;6.30;1.00;;;;;;5027015;28;20045;-63
2024/01/12 12:33:43;;;;;;;27.30;9.20;;;6.40;1.00;;;;;;5061537;23;20120;-63
2024/01/12 12:36:09;;;;;;;24.75;9.45;;;6.40;99.90;;;;;;5057350;28;20057;-63
2024/01/12 12:38:39;;;;;;;21.90;9.68;;;6.10;1.00;;;;;;5060920;28;20025;-63
2024/01/12 12:41:08;;;;;;;20.35;9.60;;;5.90;1.00;;;;;;5060030;28;20084;-63
2024/01/12 12:43:35;;;;;;;22.10;9.75;;;6.10;1.00;;;;;;5043111;28;20037;-63